sensor_id;sensor_type;location;lat;lon;timestamp;P1;durP1;ratioP1;P2;durP2;ratioP2
3573;SDS011;1801;51.050;6.246;2023-02-01T00:00:43;15.03;;;7.27;;
3573;SDS011;1801;51.050;6.246;2023-02-01T00:03:09;13.83;;;6.37;;
3573;SDS011;1801;51.050;6.246;2023-02-01T00:05:34;21.50;;;6.20;;
3573;SDS011;1801;51.050;6.246;2023-02-01T00:07:59;19.13;;;6.13;;
3573;SDS011;1801;51.050;6.246;2023-02-01T00:10:24;21.40;;;6.30;;
3573;SDS011;1801;51.050;6.246;2023-02-01T00:12:49;20.17;;;7.27;;
3573;SDS011;1801;51.050;6.246;2023-02-01T00:15:15;14.80;;;4.60;;
3573;SDS011;1801;51.050;6.246;2023-02-01T00:17:40;15.60;;;6.00;;
3573;SDS011;1801;51.050;6.246;2023-02-01T00:20:05;11.37;;;3.80;;
3573;SDS011;1801;51.050;6.246;2023-02-01T00:22:31;39.23;;;5.80;;
3573;SDS011;1801;51.050;6.246;2023-02-01T00:24:56;11.23;;;5.40;;
3573;SDS011;1801;51.050;6.246;2023-02-01T00:27:21;18.07;;;5.70;;
3573;SDS011;1801;51.050;6.246;2023-02-01T00:29:46;11.97;;;5.60;;
3573;SDS011;1801;51.050;6.246;2023-02-01T00:32:12;21.97;;;6.37;;
3573;SDS011;1801;51.050;6.246;2023-02-01T00:34:37;25.30;;;5.93;;
3573;SDS011;1801;51.050;6.246;2023-02-01T00:37:02;20.93;;;4.20;;
3573;SDS011;1801;51.050;6.246;2023-02-01T00:39:27;18.53;;;4.40;;
3573;SDS011;1801;51.050;6.246;2023-02-01T00:41:53;13.83;;;5.00;;
3573;SDS011;1801;51.050;6.246;2023-02-01T00:44:18;18.13;;;4.90;;
3573;SDS011;1801;51.050;6.246;2023-02-01T00:46:43;9.10;;;4.37;;
3573;SDS011;1801;51.050;6.246;2023-02-01T00:49:08;21.60;;;4.63;;
3573;SDS011;1801;51.050;6.246;2023-02-01T00:51:34;10.53;;;3.63;;
3573;SDS011;1801;51.050;6.246;2023-02-01T00:53:59;23.23;;;4.27;;
3573;SDS011;1801;51.050;6.246;2023-02-01T00:56:24;21.63;;;5.90;;
3573;SDS011;1801;51.050;6.246;2023-02-01T00:58:50;9.13;;;4.50;;
3573;SDS011;1801;51.050;6.246;2023-02-01T01:01:16;8.70;;;4.20;;
3573;SDS011;1801;51.050;6.246;2023-02-01T01:03:43;17.73;;;4.45;;
3573;SDS011;1801;51.050;6.246;2023-02-01T01:06:09;12.60;;;4.57;;
3573;SDS011;1801;51.050;6.246;2023-02-01T01:08:35;17.08;;;4.85;;
3573;SDS011;1801;51.050;6.246;2023-02-01T01:11:21;12.03;;;4.33;;
3573;SDS011;1801;51.050;6.246;2023-02-01T01:13:47;23.95;;;4.43;;
3573;SDS011;1801;51.050;6.246;2023-02-01T01:16:12;12.50;;;3.80;;
3573;SDS011;1801;51.050;6.246;2023-02-01T01:18:38;14.57;;;5.07;;
3573;SDS011;1801;51.050;6.246;2023-02-01T01:21:06;17.80;;;5.07;;
3573;SDS011;1801;51.050;6.246;2023-02-01T01:23:31;24.48;;;6.07;;
3573;SDS011;1801;51.050;6.246;2023-02-01T01:25:57;23.07;;;6.00;;
3573;SDS011;1801;51.050;6.246;2023-02-01T01:28:22;18.23;;;4.73;;
3573;SDS011;1801;51.050;6.246;2023-02-01T01:30:47;25.87;;;5.57;;
3573;SDS011;1801;51.050;6.246;2023-02-01T01:33:13;15.57;;;5.00;;
3573;SDS011;1801;51.050;6.246;2023-02-01T01:35:38;15.90;;;4.90;;
3573;SDS011;1801;51.050;6.246;2023-02-01T01:38:03;22.77;;;7.87;;
3573;SDS011;1801;51.050;6.246;2023-02-01T01:40:29;15.60;;;4.90;;
3573;SDS011;1801;51.050;6.246;2023-02-01T01:42:54;17.43;;;5.17;;
3573;SDS011;1801;51.050;6.246;2023-02-01T01:47:46;16.63;;;5.20;;
3573;SDS011;1801;51.050;6.246;2023-02-01T01:50:14;12.05;;;4.95;;
3573;SDS011;1801;51.050;6.246;2023-02-01T01:52:41;20.90;;;4.65;;
3573;SDS011;1801;51.050;6.246;2023-02-01T01:55:08;32.50;;;6.00;;
3573;SDS011;1801;51.050;6.246;2023-02-01T01:57:35;18.87;;;6.63;;
3573;SDS011;1801;51.050;6.246;2023-02-01T02:00:05;23.77;;;5.57;;
3573;SDS011;1801;51.050;6.246;2023-02-01T02:02:32;15.27;;;6.90;;
3573;SDS011;1801;51.050;6.246;2023-02-01T02:04:57;17.23;;;6.20;;
3573;SDS011;1801;51.050;6.246;2023-02-01T02:07:27;25.63;;;5.47;;
3573;SDS011;1801;51.050;6.246;2023-02-01T02:09:53;21.58;;;6.05;;
3573;SDS011;1801;51.050;6.246;2023-02-01T02:12:18;23.70;;;7.20;;
3573;SDS011;1801;51.050;6.246;2023-02-01T02:14:44;26.13;;;6.87;;
3573;SDS011;1801;51.050;6.246;2023-02-01T02:22:23;15.20;;;6.07;;
3573;SDS011;1801;51.050;6.246;2023-02-01T02:37:38;28.02;;;10.18;;
3573;SDS011;1801;51.050;6.246;2023-02-01T02:40:05;22.33;;;7.93;;
3573;SDS011;1801;51.050;6.246;2023-02-01T02:42:35;25.20;;;7.22;;
3573;SDS011;1801;51.050;6.246;2023-02-01T02:45:23;20.05;;;7.50;;
3573;SDS011;1801;51.050;6.246;2023-02-01T02:48:16;23.90;;;6.75;;
3573;SDS011;1801;51.050;6.246;2023-02-01T02:50:51;20.25;;;6.85;;
3573;SDS011;1801;51.050;6.246;2023-02-01T02:53:39;26.65;;;7.95;;
3573;SDS011;1801;51.050;6.246;2023-02-01T02:56:24;24.67;;;9.45;;
3573;SDS011;1801;51.050;6.246;2023-02-01T02:59:10;21.45;;;7.15;;
3573;SDS011;1801;51.050;6.246;2023-02-01T03:01:54;22.38;;;6.38;;
3573;SDS011;1801;51.050;6.246;2023-02-01T03:04:38;16.02;;;6.15;;
3573;SDS011;1801;51.050;6.246;2023-02-01T03:07:15;17.90;;;6.00;;
3573;SDS011;1801;51.050;6.246;2023-02-01T03:09:59;13.05;;;5.05;;
3573;SDS011;1801;51.050;6.246;2023-02-01T03:12:29;17.35;;;5.32;;
3573;SDS011;1801;51.050;6.246;2023-02-01T03:15:15;15.57;;;5.57;;
3573;SDS011;1801;51.050;6.246;2023-02-01T03:17:40;17.63;;;5.70;;
3573;SDS011;1801;51.050;6.246;2023-02-01T03:20:07;25.45;;;5.93;;
3573;SDS011;1801;51.050;6.246;2023-02-01T03:22:32;13.23;;;5.17;;
3573;SDS011;1801;51.050;6.246;2023-02-01T03:25:10;14.85;;;6.60;;
3573;SDS011;1801;51.050;6.246;2023-02-01T03:27:40;17.25;;;5.72;;
3573;SDS011;1801;51.050;6.246;2023-02-01T03:32:38;31.15;;;7.75;;
3573;SDS011;1801;51.050;6.246;2023-02-01T03:35:33;28.60;;;6.25;;
3573;SDS011;1801;51.050;6.246;2023-02-01T03:38:04;23.33;;;3.90;;
3573;SDS011;1801;51.050;6.246;2023-02-01T03:40:34;23.30;;;6.18;;
3573;SDS011;1801;51.050;6.246;2023-02-01T03:43:01;27.80;;;4.93;;
3573;SDS011;1801;51.050;6.246;2023-02-01T03:45:29;17.60;;;7.88;;
3573;SDS011;1801;51.050;6.246;2023-02-01T03:47:56;12.13;;;3.72;;
3573;SDS011;1801;51.050;6.246;2023-02-01T03:50:24;25.95;;;6.55;;
3573;SDS011;1801;51.050;6.246;2023-02-01T03:52:52;13.13;;;3.87;;
3573;SDS011;1801;51.050;6.246;2023-02-01T03:55:18;18.85;;;3.92;;
3573;SDS011;1801;51.050;6.246;2023-02-01T04:00:58;12.88;;;3.88;;
3573;SDS011;1801;51.050;6.246;2023-02-01T04:03:24;21.45;;;5.45;;
3573;SDS011;1801;51.050;6.246;2023-02-01T04:05:50;13.15;;;4.53;;
3573;SDS011;1801;51.050;6.246;2023-02-01T04:08:15;19.37;;;4.10;;
3573;SDS011;1801;51.050;6.246;2023-02-01T04:10:40;24.70;;;5.10;;
3573;SDS011;1801;51.050;6.246;2023-02-01T04:13:06;29.47;;;5.87;;
3573;SDS011;1801;51.050;6.246;2023-02-01T04:15:31;14.60;;;4.37;;
3573;SDS011;1801;51.050;6.246;2023-02-01T04:17:57;17.57;;;5.17;;
3573;SDS011;1801;51.050;6.246;2023-02-01T04:20:22;15.27;;;3.97;;
3573;SDS011;1801;51.050;6.246;2023-02-01T04:22:47;9.47;;;2.70;;
3573;SDS011;1801;51.050;6.246;2023-02-01T04:25:12;10.63;;;4.77;;
3573;SDS011;1801;51.050;6.246;2023-02-01T04:27:37;11.53;;;3.77;;
3573;SDS011;1801;51.050;6.246;2023-02-01T04:30:03;10.30;;;3.97;;
3573;SDS011;1801;51.050;6.246;2023-02-01T04:32:29;16.70;;;3.85;;
3573;SDS011;1801;51.050;6.246;2023-02-01T04:34:54;16.40;;;5.10;;
3573;SDS011;1801;51.050;6.246;2023-02-01T04:37:19;10.50;;;3.10;;
3573;SDS011;1801;51.050;6.246;2023-02-01T04:39:44;10.13;;;3.60;;
3573;SDS011;1801;51.050;6.246;2023-02-01T04:42:09;10.00;;;3.10;;
3573;SDS011;1801;51.050;6.246;2023-02-01T04:44:35;18.03;;;2.40;;
3573;SDS011;1801;51.050;6.246;2023-02-01T04:47:01;12.98;;;2.70;;
3573;SDS011;1801;51.050;6.246;2023-02-01T04:49:27;26.43;;;3.60;;
3573;SDS011;1801;51.050;6.246;2023-02-01T04:51:52;8.80;;;4.10;;
3573;SDS011;1801;51.050;6.246;2023-02-01T04:54:17;9.30;;;2.03;;
3573;SDS011;1801;51.050;6.246;2023-02-01T04:56:42;10.27;;;3.27;;
3573;SDS011;1801;51.050;6.246;2023-02-01T04:59:09;9.10;;;3.50;;
3573;SDS011;1801;51.050;6.246;2023-02-01T05:01:35;10.75;;;2.10;;
3573;SDS011;1801;51.050;6.246;2023-02-01T05:04:00;12.10;;;3.17;;
3573;SDS011;1801;51.050;6.246;2023-02-01T05:06:25;11.40;;;3.50;;
3573;SDS011;1801;51.050;6.246;2023-02-01T05:08:50;9.70;;;2.73;;
3573;SDS011;1801;51.050;6.246;2023-02-01T05:11:15;15.00;;;4.00;;
3573;SDS011;1801;51.050;6.246;2023-02-01T05:13:59;9.45;;;4.35;;
3573;SDS011;1801;51.050;6.246;2023-02-01T05:16:25;16.70;;;2.67;;
3573;SDS011;1801;51.050;6.246;2023-02-01T05:18:50;15.47;;;3.53;;
3573;SDS011;1801;51.050;6.246;2023-02-01T05:21:15;17.80;;;5.03;;
3573;SDS011;1801;51.050;6.246;2023-02-01T05:23:40;8.83;;;2.53;;
3573;SDS011;1801;51.050;6.246;2023-02-01T05:26:24;30.08;;;4.28;;
3573;SDS011;1801;51.050;6.246;2023-02-01T05:28:50;20.00;;;4.83;;
3573;SDS011;1801;51.050;6.246;2023-02-01T05:31:15;15.57;;;2.10;;
3573;SDS011;1801;51.050;6.246;2023-02-01T05:33:40;11.27;;;2.90;;
3573;SDS011;1801;51.050;6.246;2023-02-01T05:36:05;14.13;;;4.00;;
3573;SDS011;1801;51.050;6.246;2023-02-01T05:38:31;12.80;;;3.20;;
3573;SDS011;1801;51.050;6.246;2023-02-01T05:40:57;24.97;;;4.17;;
3573;SDS011;1801;51.050;6.246;2023-02-01T05:43:22;12.40;;;2.80;;
3573;SDS011;1801;51.050;6.246;2023-02-01T05:45:47;22.13;;;4.30;;
3573;SDS011;1801;51.050;6.246;2023-02-01T05:48:12;22.33;;;4.57;;
3573;SDS011;1801;51.050;6.246;2023-02-01T05:50:38;9.23;;;2.20;;
3573;SDS011;1801;51.050;6.246;2023-02-01T05:53:03;13.13;;;3.33;;
3573;SDS011;1801;51.050;6.246;2023-02-01T05:55:28;17.33;;;3.83;;
3573;SDS011;1801;51.050;6.246;2023-02-01T05:57:53;18.63;;;4.10;;
3573;SDS011;1801;51.050;6.246;2023-02-01T06:00:19;16.73;;;4.10;;
3573;SDS011;1801;51.050;6.246;2023-02-01T06:02:44;14.93;;;5.23;;
3573;SDS011;1801;51.050;6.246;2023-02-01T06:05:09;14.77;;;2.80;;
3573;SDS011;1801;51.050;6.246;2023-02-01T06:07:34;23.20;;;4.00;;
3573;SDS011;1801;51.050;6.246;2023-02-01T06:09:59;18.63;;;4.03;;
3573;SDS011;1801;51.050;6.246;2023-02-01T06:12:25;20.33;;;3.80;;
3573;SDS011;1801;51.050;6.246;2023-02-01T06:14:53;21.23;;;3.35;;
3573;SDS011;1801;51.050;6.246;2023-02-01T06:17:18;18.23;;;3.30;;
3573;SDS011;1801;51.050;6.246;2023-02-01T06:19:43;7.00;;;2.13;;
3573;SDS011;1801;51.050;6.246;2023-02-01T06:22:09;28.05;;;3.00;;
3573;SDS011;1801;51.050;6.246;2023-02-01T06:24:34;24.23;;;3.43;;
3573;SDS011;1801;51.050;6.246;2023-02-01T06:27:00;14.50;;;3.27;;
3573;SDS011;1801;51.050;6.246;2023-02-01T06:29:25;20.73;;;4.00;;
3573;SDS011;1801;51.050;6.246;2023-02-01T06:31:51;17.02;;;2.55;;
3573;SDS011;1801;51.050;6.246;2023-02-01T06:34:16;20.90;;;4.83;;
3573;SDS011;1801;51.050;6.246;2023-02-01T06:36:41;14.60;;;3.40;;
3573;SDS011;1801;51.050;6.246;2023-02-01T06:39:07;18.20;;;4.00;;
3573;SDS011;1801;51.050;6.246;2023-02-01T06:41:32;18.30;;;3.90;;
3573;SDS011;1801;51.050;6.246;2023-02-01T06:43:59;13.73;;;4.13;;
3573;SDS011;1801;51.050;6.246;2023-02-01T06:46:24;17.70;;;4.40;;
3573;SDS011;1801;51.050;6.246;2023-02-01T06:48:49;25.20;;;5.07;;
3573;SDS011;1801;51.050;6.246;2023-02-01T06:51:19;23.45;;;4.30;;
3573;SDS011;1801;51.050;6.246;2023-02-01T06:53:45;37.63;;;5.75;;
3573;SDS011;1801;51.050;6.246;2023-02-01T06:56:10;7.37;;;2.67;;
3573;SDS011;1801;51.050;6.246;2023-02-01T06:58:35;18.60;;;3.20;;
3573;SDS011;1801;51.050;6.246;2023-02-01T07:01:05;13.93;;;2.78;;
3573;SDS011;1801;51.050;6.246;2023-02-01T07:03:31;28.95;;;4.50;;
3573;SDS011;1801;51.050;6.246;2023-02-01T07:05:56;17.00;;;4.23;;
3573;SDS011;1801;51.050;6.246;2023-02-01T07:08:23;23.98;;;6.22;;
3573;SDS011;1801;51.050;6.246;2023-02-01T07:10:49;14.40;;;3.87;;
3573;SDS011;1801;51.050;6.246;2023-02-01T07:13:14;13.33;;;3.13;;
3573;SDS011;1801;51.050;6.246;2023-02-01T07:15:39;17.83;;;2.70;;
3573;SDS011;1801;51.050;6.246;2023-02-01T07:18:04;14.53;;;3.13;;
3573;SDS011;1801;51.050;6.246;2023-02-01T07:20:30;9.87;;;2.93;;
3573;SDS011;1801;51.050;6.246;2023-02-01T07:22:58;21.43;;;3.70;;
3573;SDS011;1801;51.050;6.246;2023-02-01T07:25:23;14.25;;;2.17;;
3573;SDS011;1801;51.050;6.246;2023-02-01T07:27:48;16.13;;;2.90;;
3573;SDS011;1801;51.050;6.246;2023-02-01T07:30:13;34.40;;;3.60;;
3573;SDS011;1801;51.050;6.246;2023-02-01T07:32:41;10.98;;;3.55;;
3573;SDS011;1801;51.050;6.246;2023-02-01T07:35:07;14.80;;;2.67;;
3573;SDS011;1801;51.050;6.246;2023-02-01T07:37:32;16.13;;;3.40;;
3573;SDS011;1801;51.050;6.246;2023-02-01T07:39:57;8.13;;;3.07;;
3573;SDS011;1801;51.050;6.246;2023-02-01T07:42:23;24.67;;;3.03;;
3573;SDS011;1801;51.050;6.246;2023-02-01T07:44:48;15.17;;;3.00;;
3573;SDS011;1801;51.050;6.246;2023-02-01T07:47:13;10.43;;;2.97;;
3573;SDS011;1801;51.050;6.246;2023-02-01T07:49:38;18.60;;;3.73;;
3573;SDS011;1801;51.050;6.246;2023-02-01T07:52:03;15.90;;;3.20;;
3573;SDS011;1801;51.050;6.246;2023-02-01T07:54:28;27.43;;;3.63;;
3573;SDS011;1801;51.050;6.246;2023-02-01T07:56:54;18.23;;;3.47;;
3573;SDS011;1801;51.050;6.246;2023-02-01T07:59:19;18.53;;;3.70;;
3573;SDS011;1801;51.050;6.246;2023-02-01T08:01:44;16.10;;;2.60;;
3573;SDS011;1801;51.050;6.246;2023-02-01T08:04:10;13.77;;;3.03;;
3573;SDS011;1801;51.050;6.246;2023-02-01T08:06:36;24.13;;;3.67;;
3573;SDS011;1801;51.050;6.246;2023-02-01T08:09:01;10.20;;;3.60;;
3573;SDS011;1801;51.050;6.246;2023-02-01T08:11:27;22.40;;;2.87;;
3573;SDS011;1801;51.050;6.246;2023-02-01T08:13:52;30.30;;;4.10;;
3573;SDS011;1801;51.050;6.246;2023-02-01T08:16:18;12.60;;;3.87;;
3573;SDS011;1801;51.050;6.246;2023-02-01T08:18:44;17.13;;;2.63;;
3573;SDS011;1801;51.050;6.246;2023-02-01T08:21:42;21.93;;;3.70;;
3573;SDS011;1801;51.050;6.246;2023-02-01T08:24:04;17.90;;;3.30;;
3573;SDS011;1801;51.050;6.246;2023-02-01T08:26:29;12.13;;;3.25;;
3573;SDS011;1801;51.050;6.246;2023-02-01T08:28:56;16.43;;;3.93;;
3573;SDS011;1801;51.050;6.246;2023-02-01T08:31:23;26.15;;;2.42;;
3573;SDS011;1801;51.050;6.246;2023-02-01T08:33:49;14.02;;;3.38;;
3573;SDS011;1801;51.050;6.246;2023-02-01T08:36:15;19.40;;;3.15;;
3573;SDS011;1801;51.050;6.246;2023-02-01T08:38:40;18.50;;;3.17;;
3573;SDS011;1801;51.050;6.246;2023-02-01T08:41:06;8.10;;;2.33;;
3573;SDS011;1801;51.050;6.246;2023-02-01T08:43:31;12.73;;;3.50;;
3573;SDS011;1801;51.050;6.246;2023-02-01T08:45:56;16.47;;;2.17;;
3573;SDS011;1801;51.050;6.246;2023-02-01T08:48:21;13.30;;;3.50;;
3573;SDS011;1801;51.050;6.246;2023-02-01T08:50:46;13.13;;;2.13;;
3573;SDS011;1801;51.050;6.246;2023-02-01T08:53:12;25.13;;;3.13;;
3573;SDS011;1801;51.050;6.246;2023-02-01T08:55:38;11.65;;;3.75;;
3573;SDS011;1801;51.050;6.246;2023-02-01T08:58:04;19.50;;;4.13;;
3573;SDS011;1801;51.050;6.246;2023-02-01T09:00:29;17.07;;;3.30;;
3573;SDS011;1801;51.050;6.246;2023-02-01T09:02:55;14.33;;;1.90;;
3573;SDS011;1801;51.050;6.246;2023-02-01T09:05:20;10.70;;;2.67;;
3573;SDS011;1801;51.050;6.246;2023-02-01T09:07:47;41.28;;;7.00;;
3573;SDS011;1801;51.050;6.246;2023-02-01T09:10:12;12.67;;;3.07;;
3573;SDS011;1801;51.050;6.246;2023-02-01T09:12:37;12.43;;;3.60;;
3573;SDS011;1801;51.050;6.246;2023-02-01T09:15:02;17.20;;;4.63;;
3573;SDS011;1801;51.050;6.246;2023-02-01T09:17:28;20.00;;;4.20;;
3573;SDS011;1801;51.050;6.246;2023-02-01T09:19:54;4.00;;;1.97;;
3573;SDS011;1801;51.050;6.246;2023-02-01T09:22:19;13.47;;;3.17;;
3573;SDS011;1801;51.050;6.246;2023-02-01T09:24:44;19.67;;;3.57;;
3573;SDS011;1801;51.050;6.246;2023-02-01T09:27:10;4.30;;;1.73;;
3573;SDS011;1801;51.050;6.246;2023-02-01T09:29:35;21.73;;;4.47;;
3573;SDS011;1801;51.050;6.246;2023-02-01T09:32:00;12.10;;;2.40;;
3573;SDS011;1801;51.050;6.246;2023-02-01T09:34:25;14.87;;;2.83;;
3573;SDS011;1801;51.050;6.246;2023-02-01T09:36:50;22.77;;;3.00;;
3573;SDS011;1801;51.050;6.246;2023-02-01T09:39:16;21.97;;;3.67;;
3573;SDS011;1801;51.050;6.246;2023-02-01T09:44:31;7.88;;;1.98;;
3573;SDS011;1801;51.050;6.246;2023-02-01T09:46:58;19.60;;;4.70;;
3573;SDS011;1801;51.050;6.246;2023-02-01T09:49:28;14.15;;;3.22;;
3573;SDS011;1801;51.050;6.246;2023-02-01T09:51:54;17.55;;;3.15;;
3573;SDS011;1801;51.050;6.246;2023-02-01T09:54:27;11.75;;;3.05;;
3573;SDS011;1801;51.050;6.246;2023-02-01T09:56:55;18.30;;;4.00;;
3573;SDS011;1801;51.050;6.246;2023-02-01T10:01:48;20.27;;;3.07;;
3573;SDS011;1801;51.050;6.246;2023-02-01T10:04:14;16.60;;;3.13;;
3573;SDS011;1801;51.050;6.246;2023-02-01T10:06:46;24.13;;;3.92;;
3573;SDS011;1801;51.050;6.246;2023-02-01T10:09:33;23.35;;;4.28;;
3573;SDS011;1801;51.050;6.246;2023-02-01T10:12:26;23.95;;;3.60;;
3573;SDS011;1801;51.050;6.246;2023-02-01T10:14:58;8.32;;;2.25;;
3573;SDS011;1801;51.050;6.246;2023-02-01T10:22:44;11.55;;;3.85;;
3573;SDS011;1801;51.050;6.246;2023-02-01T10:25:14;9.90;;;3.10;;
3573;SDS011;1801;51.050;6.246;2023-02-01T10:27:42;9.10;;;2.78;;
3573;SDS011;1801;51.050;6.246;2023-02-01T10:32:42;18.63;;;4.57;;
3573;SDS011;1801;51.050;6.246;2023-02-01T10:37:36;17.02;;;3.63;;
3573;SDS011;1801;51.050;6.246;2023-02-01T10:40:34;19.47;;;3.93;;
3573;SDS011;1801;51.050;6.246;2023-02-01T10:42:59;14.70;;;4.37;;
3573;SDS011;1801;51.050;6.246;2023-02-01T10:45:26;7.43;;;2.30;;
3573;SDS011;1801;51.050;6.246;2023-02-01T10:47:52;14.20;;;3.10;;
3573;SDS011;1801;51.050;6.246;2023-02-01T10:50:22;20.57;;;4.57;;
3573;SDS011;1801;51.050;6.246;2023-02-01T10:53:04;15.17;;;2.90;;
3573;SDS011;1801;51.050;6.246;2023-02-01T10:57:57;13.27;;;3.33;;
3573;SDS011;1801;51.050;6.246;2023-02-01T11:00:22;16.80;;;3.30;;
3573;SDS011;1801;51.050;6.246;2023-02-01T11:02:48;11.60;;;3.13;;
3573;SDS011;1801;51.050;6.246;2023-02-01T11:05:15;20.80;;;3.17;;
3573;SDS011;1801;51.050;6.246;2023-02-01T11:07:46;13.93;;;2.30;;
3573;SDS011;1801;51.050;6.246;2023-02-01T11:12:55;12.90;;;2.97;;
3573;SDS011;1801;51.050;6.246;2023-02-01T11:15:21;17.40;;;3.40;;
3573;SDS011;1801;51.050;6.246;2023-02-01T11:17:47;15.00;;;4.75;;
3573;SDS011;1801;51.050;6.246;2023-02-01T11:22:56;11.30;;;3.03;;
3573;SDS011;1801;51.050;6.246;2023-02-01T11:25:22;15.80;;;3.43;;
3573;SDS011;1801;51.050;6.246;2023-02-01T11:27:48;13.13;;;3.50;;
3573;SDS011;1801;51.050;6.246;2023-02-01T11:30:17;18.63;;;3.47;;
3573;SDS011;1801;51.050;6.246;2023-02-01T11:32:47;11.85;;;3.50;;
3573;SDS011;1801;51.050;6.246;2023-02-01T11:35:15;8.43;;;2.88;;
3573;SDS011;1801;51.050;6.246;2023-02-01T11:37:41;10.30;;;3.00;;
3573;SDS011;1801;51.050;6.246;2023-02-01T11:42:55;10.07;;;2.67;;
3573;SDS011;1801;51.050;6.246;2023-02-01T11:45:24;10.90;;;3.72;;
3573;SDS011;1801;51.050;6.246;2023-02-01T11:47:52;18.42;;;3.25;;
3573;SDS011;1801;51.050;6.246;2023-02-01T11:50:19;17.83;;;3.75;;
3573;SDS011;1801;51.050;6.246;2023-02-01T11:53:00;8.35;;;2.47;;
3573;SDS011;1801;51.050;6.246;2023-02-01T11:55:33;10.98;;;2.28;;
3573;SDS011;1801;51.050;6.246;2023-02-01T11:58:22;10.17;;;3.60;;
3573;SDS011;1801;51.050;6.246;2023-02-01T12:04:00;26.93;;;3.73;;
3573;SDS011;1801;51.050;6.246;2023-02-01T12:09:00;10.27;;;1.33;;
3573;SDS011;1801;51.050;6.246;2023-02-01T12:16:24;7.00;;;1.73;;
3573;SDS011;1801;51.050;6.246;2023-02-01T12:18:59;17.63;;;3.33;;
3573;SDS011;1801;51.050;6.246;2023-02-01T12:29:16;11.43;;;2.40;;
3573;SDS011;1801;51.050;6.246;2023-02-01T12:36:53;17.25;;;3.47;;
3573;SDS011;1801;51.050;6.246;2023-02-01T12:41:48;13.73;;;2.97;;
3573;SDS011;1801;51.050;6.246;2023-02-01T12:46:50;15.18;;;2.92;;
3573;SDS011;1801;51.050;6.246;2023-02-01T12:49:41;13.25;;;2.90;;
3573;SDS011;1801;51.050;6.246;2023-02-01T12:52:06;6.63;;;3.78;;
3573;SDS011;1801;51.050;6.246;2023-02-01T12:54:36;17.92;;;4.68;;
3573;SDS011;1801;51.050;6.246;2023-02-01T12:57:04;12.65;;;2.30;;
3573;SDS011;1801;51.050;6.246;2023-02-01T12:59:42;7.68;;;2.70;;
3573;SDS011;1801;51.050;6.246;2023-02-01T13:07:14;12.10;;;2.80;;
3573;SDS011;1801;51.050;6.246;2023-02-01T13:10:24;9.93;;;3.15;;
3573;SDS011;1801;51.050;6.246;2023-02-01T13:15:02;16.60;;;2.83;;
3573;SDS011;1801;51.050;6.246;2023-02-01T13:17:29;10.23;;;2.35;;
3573;SDS011;1801;51.050;6.246;2023-02-01T13:19:58;7.00;;;2.08;;
3573;SDS011;1801;51.050;6.246;2023-02-01T13:25:00;5.17;;;1.73;;
3573;SDS011;1801;51.050;6.246;2023-02-01T13:27:27;7.27;;;1.63;;
3573;SDS011;1801;51.050;6.246;2023-02-01T13:29:56;9.57;;;2.60;;
3573;SDS011;1801;51.050;6.246;2023-02-01T13:35:31;13.93;;;3.20;;
3573;SDS011;1801;51.050;6.246;2023-02-01T13:42:31;5.73;;;1.40;;
3573;SDS011;1801;51.050;6.246;2023-02-01T13:45:00;10.90;;;2.83;;
3573;SDS011;1801;51.050;6.246;2023-02-01T13:47:43;9.57;;;2.15;;
3573;SDS011;1801;51.050;6.246;2023-02-01T13:50:21;8.20;;;3.20;;
3573;SDS011;1801;51.050;6.246;2023-02-01T13:52:55;8.23;;;1.60;;
3573;SDS011;1801;51.050;6.246;2023-02-01T13:57:46;18.87;;;2.50;;
3573;SDS011;1801;51.050;6.246;2023-02-01T14:00:26;23.25;;;2.58;;
3573;SDS011;1801;51.050;6.246;2023-02-01T14:13:13;14.23;;;2.42;;
3573;SDS011;1801;51.050;6.246;2023-02-01T14:15:38;9.57;;;2.40;;
3573;SDS011;1801;51.050;6.246;2023-02-01T14:23:38;5.13;;;1.60;;
3573;SDS011;1801;51.050;6.246;2023-02-01T14:26:05;12.50;;;3.67;;
3573;SDS011;1801;51.050;6.246;2023-02-01T14:28:32;9.32;;;2.60;;
3573;SDS011;1801;51.050;6.246;2023-02-01T14:30:57;8.47;;;2.00;;
3573;SDS011;1801;51.050;6.246;2023-02-01T14:33:24;6.27;;;1.30;;
3573;SDS011;1801;51.050;6.246;2023-02-01T14:36:05;8.80;;;2.27;;
3573;SDS011;1801;51.050;6.246;2023-02-01T14:38:32;8.23;;;2.80;;
3573;SDS011;1801;51.050;6.246;2023-02-01T14:41:15;8.18;;;2.00;;
3573;SDS011;1801;51.050;6.246;2023-02-01T14:43:50;11.00;;;2.40;;
3573;SDS011;1801;51.050;6.246;2023-02-01T14:46:15;22.30;;;4.50;;
3573;SDS011;1801;51.050;6.246;2023-02-01T14:48:42;13.87;;;2.60;;
3573;SDS011;1801;51.050;6.246;2023-02-01T14:51:08;6.05;;;2.42;;
3573;SDS011;1801;51.050;6.246;2023-02-01T14:53:34;8.00;;;3.07;;
3573;SDS011;1801;51.050;6.246;2023-02-01T14:56:04;13.63;;;2.47;;
3573;SDS011;1801;51.050;6.246;2023-02-01T15:01:04;15.00;;;3.17;;
3573;SDS011;1801;51.050;6.246;2023-02-01T15:05:55;17.97;;;2.27;;
3573;SDS011;1801;51.050;6.246;2023-02-01T15:08:24;6.75;;;1.73;;
3573;SDS011;1801;51.050;6.246;2023-02-01T15:10:50;9.38;;;2.13;;
3573;SDS011;1801;51.050;6.246;2023-02-01T15:13:24;8.48;;;2.35;;
3573;SDS011;1801;51.050;6.246;2023-02-01T15:15:59;8.43;;;3.08;;
3573;SDS011;1801;51.050;6.246;2023-02-01T15:18:24;8.25;;;2.40;;
3573;SDS011;1801;51.050;6.246;2023-02-01T15:20:56;6.70;;;1.83;;
3573;SDS011;1801;51.050;6.246;2023-02-01T15:23:21;7.72;;;2.65;;
3573;SDS011;1801;51.050;6.246;2023-02-01T15:25:46;21.43;;;2.97;;
3573;SDS011;1801;51.050;6.246;2023-02-01T15:28:12;20.77;;;3.40;;
3573;SDS011;1801;51.050;6.246;2023-02-01T15:30:38;5.80;;;2.05;;
3573;SDS011;1801;51.050;6.246;2023-02-01T15:33:08;11.23;;;2.47;;
3573;SDS011;1801;51.050;6.246;2023-02-01T15:35:40;7.70;;;2.95;;
3573;SDS011;1801;51.050;6.246;2023-02-01T15:43:23;9.57;;;2.00;;
3573;SDS011;1801;51.050;6.246;2023-02-01T15:45:48;9.40;;;2.13;;
3573;SDS011;1801;51.050;6.246;2023-02-01T15:48:19;15.35;;;3.28;;
3573;SDS011;1801;51.050;6.246;2023-02-01T15:50:46;5.78;;;1.92;;
3573;SDS011;1801;51.050;6.246;2023-02-01T15:53:14;10.87;;;2.40;;
3573;SDS011;1801;51.050;6.246;2023-02-01T15:55:41;8.35;;;2.03;;
3573;SDS011;1801;51.050;6.246;2023-02-01T15:58:07;7.70;;;3.10;;
3573;SDS011;1801;51.050;6.246;2023-02-01T16:00:43;14.33;;;3.83;;
3573;SDS011;1801;51.050;6.246;2023-02-01T16:03:23;5.50;;;2.42;;
3573;SDS011;1801;51.050;6.246;2023-02-01T16:05:54;9.98;;;3.08;;
3573;SDS011;1801;51.050;6.246;2023-02-01T16:08:21;5.63;;;2.80;;
3573;SDS011;1801;51.050;6.246;2023-02-01T16:10:47;9.48;;;2.88;;
3573;SDS011;1801;51.050;6.246;2023-02-01T16:13:13;10.93;;;2.40;;
3573;SDS011;1801;51.050;6.246;2023-02-01T16:15:39;4.40;;;1.77;;
3573;SDS011;1801;51.050;6.246;2023-02-01T16:18:04;5.93;;;2.23;;
3573;SDS011;1801;51.050;6.246;2023-02-01T16:20:30;9.90;;;2.80;;
3573;SDS011;1801;51.050;6.246;2023-02-01T16:22:55;8.60;;;3.33;;
3573;SDS011;1801;51.050;6.246;2023-02-01T16:25:21;12.97;;;2.67;;
3573;SDS011;1801;51.050;6.246;2023-02-01T16:27:46;10.27;;;2.57;;
3573;SDS011;1801;51.050;6.246;2023-02-01T16:30:11;6.87;;;2.43;;
3573;SDS011;1801;51.050;6.246;2023-02-01T16:32:36;11.50;;;4.13;;
3573;SDS011;1801;51.050;6.246;2023-02-01T16:35:03;18.67;;;3.25;;
3573;SDS011;1801;51.050;6.246;2023-02-01T16:37:28;7.40;;;2.87;;
3573;SDS011;1801;51.050;6.246;2023-02-01T16:39:57;21.15;;;3.28;;
3573;SDS011;1801;51.050;6.246;2023-02-01T16:42:22;13.57;;;5.10;;
3573;SDS011;1801;51.050;6.246;2023-02-01T16:44:47;13.73;;;3.63;;
3573;SDS011;1801;51.050;6.246;2023-02-01T16:47:21;17.67;;;3.00;;
3573;SDS011;1801;51.050;6.246;2023-02-01T16:49:47;25.00;;;4.50;;
3573;SDS011;1801;51.050;6.246;2023-02-01T16:52:19;7.73;;;2.67;;
3573;SDS011;1801;51.050;6.246;2023-02-01T16:54:45;14.18;;;4.22;;
3573;SDS011;1801;51.050;6.246;2023-02-01T16:57:14;20.63;;;3.17;;
3573;SDS011;1801;51.050;6.246;2023-02-01T16:59:40;11.70;;;2.22;;
3573;SDS011;1801;51.050;6.246;2023-02-01T17:02:06;10.17;;;2.57;;
3573;SDS011;1801;51.050;6.246;2023-02-01T17:04:34;11.20;;;2.45;;
3573;SDS011;1801;51.050;6.246;2023-02-01T17:07:00;8.90;;;2.23;;
3573;SDS011;1801;51.050;6.246;2023-02-01T17:09:31;9.68;;;3.75;;
3573;SDS011;1801;51.050;6.246;2023-02-01T17:11:56;12.23;;;2.77;;
3573;SDS011;1801;51.050;6.246;2023-02-01T17:14:21;18.73;;;3.23;;
3573;SDS011;1801;51.050;6.246;2023-02-01T17:16:47;8.53;;;1.90;;